Aeroporto :
LOGIN :

Iscrizione | Disclaimer

   EN    FR    IT 

 










Sommario :    VFR   VFR Marginale   IFR   IFR Intensivo   IFR Molto Intensivo
Visibilità : 
Base nubi : 
>= 8 km
>= 3000ft
5 / 8 km
1000 / 3000 ft
1500m / 5 km
500 / 1000 ft
800 / 1500m
200 / 500 ft
< 800m
< 200 ft
Simboli :   Temporali  Nebbia  Neve Forte  Precipitazioni Forti  Vento > 20 kt
SIGMETs :   Varie  Temporali  Ghiacco  Turbolenza  Onda orograficha  Ceneri Vulcaniche






- Altitudine del aeroporto : 1411 ft
- Codice IATA : SZG


LOWS - Salzburg

ULTIMO METAR :
  • 122050Z VRB02KT 5000 -RASN FEW003 SCT006 BKN010 00/00 Q1006 TEMPO BKN009

METARs OBSOLETI :
  • 122020Z 32003KT 8000 -RASN FEW003 BKN010 01/00 Q1007 TEMPO BKN009
  • 121950Z VRB01KT 9999 -RASN FEW008 BKN012 01/01 Q1007 NOSIG
  • 121920Z VRB02KT 9999 -RASN FEW006 BKN012 02/01 Q1007 RERA NOSIG
  • 121850Z 20006KT 9999 RA FEW010 BKN013 02/02 Q1007 TEMPO SCT010 BKN017
  • 121820Z VRB02KT 9999 -RA FEW006 SCT014 BKN020 03/02 Q1007 RERA TEMPO RA BKN014

TAF TAF LOWS
Valido dal 12 a 18 ore il 13 a 18 ore UTC


121715Z 1218/1318 16004KT 9999 -RA SCT020 BKN035 TX04/1218Z TN01/1307Z
TEMPO 1218/1224 32005KT 4000 RA SCT008 BKN012
TEMPO 1300/1315 32005KT 2500 RASN BKN009



MetMap, La meteo Aeronautica in un colpo d'occhio ! - Copyright ORBIFLY Dicembre 2007 - Disclaimer

ORBIFLY MET'MAP TEAM :

Programmazione e sviluppo : Alexandra Zaïnal
Concezione e sviluppo : Baudouin d'Aumeries
Co-Programmazione e sviluppo : Marc-Olivier Méhu
Supporto tecnico e logistico : Manuel Goepfert
Aiuto per la traduzione : Arnaldo La Scala

Contatto : metmap@orbifly.com




FONTI E CREDITI :

   NOAA